Time;durP1;ratioP1;P1;durP2;ratioP2;P2;SDS_P1;SDS_P2;PMS_P1;PMS_P2;Temp;Humidity;BMP_temperature;BMP_pressure;BME280_temperature;BME280_humidity;BME280_pressure;Samples;Min_cycle;Max_cycle;Signal;HPM_P1;HPM_P2
2022/02/05 00:02:50;;;;;;;11.90;2.33;;;5.70;81.00;;;;;;5124269;28;20042;-65
2022/02/05 00:05:18;;;;;;;6.90;2.00;;;5.80;80.90;;;;;;5129909;28;20076;-65
2022/02/05 00:07:53;;;;;;;5.50;1.63;;;5.80;80.50;;;;;;5115227;28;20024;-65
2022/02/05 00:15:50;;;;;;;8.85;2.00;;;5.80;80.40;;;;;;5094776;28;20419;-66
2022/02/05 00:40:32;;;;;;;13.00;2.00;;;5.80;79.90;;;;;;5132634;27;20158;-65
2022/02/05 00:42:58;;;;;;;7.50;1.57;;;5.70;79.90;;;;;;5110904;27;20024;-65
2022/02/05 00:45:26;;;;;;;6.32;1.98;;;5.70;79.90;;;;;;5129085;27;20273;-65
2022/02/05 00:47:54;;;;;;;7.68;1.88;;;5.70;80.00;;;;;;5127818;27;20463;-66
2022/02/05 00:50:24;;;;;;;6.93;1.65;;;5.70;80.20;;;;;;5123098;27;20027;-65
2022/02/05 00:53:00;;;;;;;7.65;2.00;;;5.70;80.30;;;;;;5129652;27;20403;-65
2022/02/05 00:55:29;;;;;;;9.60;2.30;;;5.70;80.50;;;;;;5136815;27;20110;-65
2022/02/05 00:58:02;;;;;;;7.72;1.90;;;5.70;80.60;;;;;;5122331;27;20079;-65
2022/02/05 01:00:28;;;;;;;;;;;5.70;80.60;;;;;;5132220;27;20384;-65
2022/02/05 01:02:53;;;;;;;10.02;2.15;;;5.70;80.70;;;;;;5129310;27;19912;-65
2022/02/05 01:05:20;;;;;;;9.93;2.05;;;5.60;80.90;;;;;;5127797;27;20035;-65
2022/02/05 01:07:46;;;;;;;6.05;1.70;;;5.60;81.20;;;;;;5126294;27;20035;-65
2022/02/05 01:10:13;;;;;;;8.20;2.75;;;5.60;81.30;;;;;;5126306;27;20038;-65
2022/02/05 01:12:43;;;;;;;7.75;2.15;;;5.60;81.40;;;;;;5128550;27;20380;-65
2022/02/05 01:15:10;;;;;;;8.70;1.95;;;5.60;81.50;;;;;;5100058;27;20080;-65
2022/02/05 01:17:45;;;;;;;9.07;2.33;;;5.60;81.60;;;;;;5119768;27;20020;-65
2022/02/05 01:20:40;;;;;;;8.40;2.10;;;5.50;81.70;;;;;;5118503;27;20030;-65
2022/02/05 01:23:04;;;;;;;10.50;3.15;;;5.50;81.80;;;;;;5122241;27;20035;-65
2022/02/05 01:25:35;;;;;;;8.52;2.15;;;5.50;81.90;;;;;;5117157;27;20034;-65
2022/02/05 01:28:09;;;;;;;12.95;2.55;;;5.50;82.10;;;;;;5121931;27;20403;-65
2022/02/05 01:30:39;;;;;;;11.25;2.40;;;5.50;82.10;;;;;;5113689;27;20391;-66
2022/02/05 01:52:15;;;;;;;11.75;2.35;;;5.40;82.40;;;;;;5131379;27;20039;-66
2022/02/05 01:57:42;;;;;;;13.35;2.30;;;5.40;82.30;;;;;;5130032;27;20083;-65
2022/02/05 02:05:30;;;;;;;8.43;2.00;;;5.50;82.10;;;;;;5130901;27;20070;-65
2022/02/05 02:26:39;;;;;;;10.77;2.33;;;5.40;81.60;;;;;;5131032;27;20031;-66
2022/02/05 02:29:10;;;;;;;9.95;2.50;;;5.40;81.60;;;;;;5115164;27;20030;-66
2022/02/05 02:31:41;;;;;;;9.63;2.20;;;5.50;81.50;;;;;;5103063;27;20039;-66
2022/02/05 02:34:11;;;;;;;8.77;2.35;;;5.50;81.50;;;;;;5127305;27;20028;-66
2022/02/05 02:39:19;;;;;;;11.95;2.78;;;5.40;81.40;;;;;;5118983;27;20070;-65
2022/02/05 02:44:11;;;;;;;8.80;2.78;;;5.40;81.50;;;;;;5126851;27;20126;-66
2022/02/05 02:46:36;;;;;;;8.38;2.15;;;5.40;81.40;;;;;;5086842;28;20063;-66
2022/02/05 02:49:04;;;;;;;10.32;1.95;;;5.40;81.90;;;;;;5102326;27;20391;-66
2022/02/05 02:57:23;;;;;;;8.32;1.88;;;5.40;81.40;;;;;;5129188;27;20038;-66
2022/02/05 02:59:52;;;;;;;9.32;2.60;;;5.40;81.50;;;;;;5129274;27;20027;-66
2022/02/05 03:02:21;;;;;;;7.80;1.67;;;5.40;81.50;;;;;;5111817;27;20380;-66
2022/02/05 03:04:48;;;;;;;7.32;2.28;;;5.40;81.50;;;;;;5127666;27;20093;-65
2022/02/05 03:07:14;;;;;;;9.88;2.00;;;5.40;81.70;;;;;;5129194;27;20026;-65
2022/02/05 03:09:41;;;;;;;12.13;2.35;;;5.40;81.70;;;;;;5129132;27;20092;-66
2022/02/05 03:12:07;;;;;;;8.35;1.98;;;5.40;81.70;;;;;;5124278;27;20040;-66
2022/02/05 03:14:33;;;;;;;8.38;1.88;;;5.40;81.70;;;;;;5095998;27;20073;-66
2022/02/05 03:17:05;;;;;;;8.07;1.75;;;5.40;81.80;;;;;;5111516;27;20126;-65
2022/02/05 03:19:31;;;;;;;9.27;1.77;;;5.40;82.00;;;;;;5130074;27;20110;-66
2022/02/05 03:21:57;;;;;;;9.80;2.00;;;5.40;82.00;;;;;;5091119;28;20040;-66
2022/02/05 03:24:22;;;;;;;11.07;2.03;;;5.40;82.00;;;;;;5089304;28;20031;-66
2022/02/05 03:26:48;;;;;;;8.57;2.42;;;5.40;82.00;;;;;;5089277;28;20168;-66
2022/02/05 03:29:14;;;;;;;11.25;2.00;;;5.40;82.10;;;;;;5088898;28;20089;-66
2022/02/05 03:31:40;;;;;;;9.80;2.03;;;5.40;82.20;;;;;;5054596;28;20085;-66
2022/02/05 03:34:06;;;;;;;11.82;1.77;;;5.40;82.20;;;;;;5087727;28;20024;-66
2022/02/05 03:36:37;;;;;;;7.65;2.30;;;5.40;82.30;;;;;;5088558;28;20050;-66
2022/02/05 03:39:04;;;;;;;7.82;1.90;;;5.40;82.40;;;;;;5081801;28;20024;-66
2022/02/05 03:41:30;;;;;;;9.45;2.17;;;5.40;82.50;;;;;;5089402;28;20039;-66
2022/02/05 03:43:56;;;;;;;7.72;1.73;;;5.40;82.50;;;;;;5087080;28;20481;-66
2022/02/05 03:46:21;;;;;;;9.40;2.03;;;5.40;82.50;;;;;;5091143;28;20107;-66
2022/02/05 03:48:47;;;;;;;11.18;1.90;;;5.40;82.50;;;;;;5088176;28;20043;-66
2022/02/05 03:51:13;;;;;;;12.07;2.00;;;5.40;82.50;;;;;;5084542;28;20032;-66
2022/02/05 03:53:38;;;;;;;10.25;2.00;;;5.40;82.70;;;;;;5088004;28;20575;-65
2022/02/05 03:56:04;;;;;;;23.92;2.60;;;5.40;83.40;;;;;;5084161;28;20362;-66
2022/02/05 03:58:30;;;;;;;10.30;2.03;;;5.40;83.00;;;;;;5089125;28;20036;-66
2022/02/05 04:00:55;;;;;;;14.10;2.35;;;5.30;83.10;;;;;;5091667;28;20090;-66
2022/02/05 04:03:21;;;;;;;16.50;2.28;;;5.40;83.20;;;;;;5091325;28;20407;-66
2022/02/05 04:05:47;;;;;;;10.60;1.98;;;5.30;83.20;;;;;;5092395;28;20384;-65
2022/02/05 04:08:14;;;;;;;9.68;2.17;;;5.30;83.80;;;;;;5092526;28;20028;-66
2022/02/05 04:10:47;;;;;;;12.82;2.05;;;5.30;83.30;;;;;;5092497;28;20500;-65
2022/02/05 04:16:09;;;;;;;9.32;2.00;;;5.30;83.40;;;;;;5092308;28;20082;-66
2022/02/05 04:18:36;;;;;;;7.93;2.00;;;5.30;83.40;;;;;;5092090;28;20073;-66
2022/02/05 04:21:03;;;;;;;11.35;2.33;;;5.30;83.40;;;;;;5092371;28;20123;-66
2022/02/05 04:23:30;;;;;;;13.48;2.20;;;5.30;83.40;;;;;;5127198;27;20035;-66
2022/02/05 04:25:56;;;;;;;12.43;1.88;;;5.30;83.40;;;;;;5132846;27;20054;-65
2022/02/05 04:28:22;;;;;;;9.43;2.13;;;5.30;83.40;;;;;;5131671;27;20058;-65
2022/02/05 04:30:48;;;;;;;12.15;1.95;;;5.30;83.40;;;;;;5119075;27;20039;-65
2022/02/05 04:33:13;;;;;;;10.57;2.10;;;5.30;83.30;;;;;;5114166;27;20030;-65
2022/02/05 04:35:43;;;;;;;12.88;2.13;;;5.30;83.30;;;;;;5126149;27;20036;-65
2022/02/05 04:38:09;;;;;;;8.98;2.60;;;5.30;83.40;;;;;;5117822;27;20035;-65
2022/02/05 04:40:41;;;;;;;8.57;1.92;;;5.30;83.30;;;;;;5131943;27;20408;-65
2022/02/05 04:45:56;;;;;;;9.13;1.92;;;5.30;83.40;;;;;;5130167;27;20412;-65
2022/02/05 05:02:35;;;;;;;12.27;2.15;;;5.20;83.70;;;;;;5067628;28;20092;-66
2022/02/05 05:10:02;;;;;;;12.13;2.20;;;5.20;83.90;;;;;;5131977;27;20035;-65
2022/02/05 05:15:31;;;;;;;14.27;2.33;;;5.20;83.90;;;;;;5132096;27;20066;-66
2022/02/05 05:20:50;;;;;;;11.82;2.25;;;5.30;84.10;;;;;;5122708;27;20139;-66
2022/02/05 05:23:16;;;;;;;11.70;2.17;;;5.30;84.00;;;;;;5130895;27;20055;-66
2022/02/05 05:25:42;;;;;;;11.50;1.90;;;5.30;84.10;;;;;;5111942;27;20399;-65
2022/02/05 05:28:07;;;;;;;12.88;2.70;;;5.30;84.00;;;;;;5132227;27;20040;-65
2022/02/05 05:30:33;;;;;;;8.23;2.17;;;5.30;84.00;;;;;;5131514;27;20092;-67
2022/02/05 05:32:59;;;;;;;8.77;1.65;;;5.30;84.00;;;;;;5131523;27;20035;-66
2022/02/05 05:35:24;;;;;;;14.65;2.42;;;5.30;84.10;;;;;;5113649;27;20015;-66
2022/02/05 05:37:52;;;;;;;12.25;2.13;;;5.30;84.00;;;;;;5103692;27;20028;-66
2022/02/05 05:40:19;;;;;;;11.25;2.63;;;5.30;84.00;;;;;;5131086;27;20064;-66
2022/02/05 05:42:52;;;;;;;8.70;1.70;;;5.40;83.90;;;;;;5130486;27;20035;-66
2022/02/05 05:47:52;;;;;;;12.15;2.05;;;5.30;84.00;;;;;;5130889;27;20489;-66
2022/02/05 05:53:17;;;;;;;11.10;1.92;;;5.30;83.90;;;;;;5070476;27;20538;-66
2022/02/05 05:55:47;;;;;;;13.40;3.17;;;5.30;84.00;;;;;;5113144;27;20034;-66
2022/02/05 05:58:17;;;;;;;9.65;2.50;;;5.20;84.10;;;;;;5131071;27;20035;-66
2022/02/05 06:00:43;;;;;;;14.63;2.17;;;5.30;84.10;;;;;;5131444;27;20073;-66
2022/02/05 06:03:09;;;;;;;11.32;2.28;;;5.30;84.10;;;;;;5112354;27;20515;-66
2022/02/05 06:05:36;;;;;;;11.05;2.20;;;5.30;84.10;;;;;;5131388;27;20028;-66
2022/02/05 06:08:04;;;;;;;14.23;2.20;;;5.30;84.10;;;;;;5112045;27;20035;-65
2022/02/05 06:10:30;;;;;;;9.43;2.00;;;5.20;84.00;;;;;;5111654;27;20027;-66
2022/02/05 06:12:55;;;;;;;11.18;2.00;;;5.20;84.10;;;;;;5110807;28;20026;-66
2022/02/05 06:15:22;;;;;;;9.13;1.88;;;5.20;84.20;;;;;;5131222;27;20031;-66
2022/02/05 06:17:50;;;;;;;8.65;2.03;;;5.20;84.30;;;;;;5119869;27;20031;-66
2022/02/05 06:20:15;;;;;;;7.70;1.85;;;5.20;84.30;;;;;;5112803;27;20034;-66
2022/02/05 06:22:41;;;;;;;8.65;1.77;;;5.30;84.40;;;;;;5111208;27;20709;-66
2022/02/05 06:25:07;;;;;;;12.10;1.98;;;5.30;84.40;;;;;;5130806;27;20035;-66
2022/02/05 06:27:33;;;;;;;11.88;2.22;;;5.30;84.20;;;;;;5118798;27;20046;-66
2022/02/05 06:29:59;;;;;;;9.25;1.85;;;5.30;84.20;;;;;;5129981;27;20035;-66
2022/02/05 06:32:24;;;;;;;10.20;2.15;;;5.30;84.30;;;;;;5129933;27;20031;-66
2022/02/05 06:34:50;;;;;;;8.57;1.70;;;5.30;84.30;;;;;;5128976;27;20031;-66
2022/02/05 06:37:18;;;;;;;10.88;2.17;;;5.30;84.30;;;;;;5129975;27;20110;-66
2022/02/05 06:39:44;;;;;;;10.32;2.20;;;5.30;84.30;;;;;;5109884;27;20628;-66
2022/02/05 06:42:09;;;;;;;13.13;2.45;;;5.30;84.30;;;;;;5098437;27;20034;-67
2022/02/05 06:44:35;;;;;;;12.63;2.30;;;5.30;84.30;;;;;;5128119;27;20035;-66
2022/02/05 06:47:01;;;;;;;9.10;2.38;;;5.30;84.20;;;;;;5119506;27;20031;-66
2022/02/05 06:49:30;;;;;;;12.18;2.67;;;5.30;84.20;;;;;;5115302;27;20039;-66
2022/02/05 06:51:56;;;;;;;13.20;2.70;;;5.30;84.30;;;;;;5113036;27;20031;-66
2022/02/05 06:54:22;;;;;;;10.95;2.00;;;5.30;84.30;;;;;;5111301;27;20468;-66
2022/02/05 06:56:48;;;;;;;7.72;2.58;;;5.20;84.30;;;;;;5111203;27;20023;-66
2022/02/05 06:59:14;;;;;;;10.60;2.50;;;5.20;84.30;;;;;;5130669;27;20118;-66
2022/02/05 07:01:39;;;;;;;8.55;2.17;;;5.20;84.40;;;;;;5129463;27;20047;-65
2022/02/05 07:04:06;;;;;;;16.63;2.20;;;5.20;84.50;;;;;;5111316;27;20122;-66
2022/02/05 07:06:34;;;;;;;10.00;2.33;;;5.20;84.50;;;;;;5130434;27;20391;-66
2022/02/05 07:09:03;;;;;;;10.15;2.30;;;5.10;84.60;;;;;;5111762;27;20448;-66
2022/02/05 07:11:28;;;;;;;12.63;2.10;;;5.10;84.60;;;;;;5112465;27;20034;-66
2022/02/05 07:13:56;;;;;;;8.88;2.30;;;5.10;84.60;;;;;;5129991;27;20492;-66
2022/02/05 07:16:29;;;;;;;13.93;3.08;;;5.20;84.70;;;;;;5139587;27;20027;-66
2022/02/05 07:19:15;;;;;;;12.75;2.78;;;5.20;84.80;;;;;;5119568;27;20437;-66
2022/02/05 07:21:46;;;;;;;15.02;2.78;;;5.10;84.70;;;;;;5112469;27;20031;-66
2022/02/05 07:24:37;;;;;;;9.85;2.42;;;5.20;84.90;;;;;;5129861;27;20134;-66
2022/02/05 07:29:45;;;;;;;8.57;2.70;;;5.20;84.80;;;;;;5129072;27;20046;-65
2022/02/05 07:32:10;;;;;;;12.00;2.85;;;5.20;84.90;;;;;;5128591;27;20047;-66
2022/02/05 07:34:36;;;;;;;15.95;3.92;;;5.20;84.90;;;;;;5110724;28;20027;-66
2022/02/05 07:37:03;;;;;;;10.55;2.35;;;5.20;84.80;;;;;;5121213;28;20106;-66
2022/02/05 07:39:45;;;;;;;11.27;2.67;;;5.20;84.80;;;;;;5112027;28;20030;-67
2022/02/05 07:42:11;;;;;;;10.40;2.70;;;5.20;84.90;;;;;;5129036;28;20530;-66
2022/02/05 07:44:36;;;;;;;13.98;3.08;;;5.20;84.90;;;;;;5129696;28;20110;-66
2022/02/05 07:47:02;;;;;;;9.50;2.97;;;5.20;84.90;;;;;;5130039;28;20111;-66
2022/02/05 07:49:36;;;;;;;10.68;2.65;;;5.20;84.90;;;;;;5111453;28;20019;-66
2022/02/05 07:52:02;;;;;;;18.30;3.38;;;5.30;85.00;;;;;;5129521;28;20027;-66
2022/02/05 07:54:28;;;;;;;13.07;3.13;;;5.30;84.90;;;;;;5118942;28;20024;-66
2022/02/05 07:56:53;;;;;;;20.58;3.50;;;5.30;84.80;;;;;;5129501;28;20110;-66
2022/02/05 07:59:19;;;;;;;13.30;3.10;;;5.30;84.80;;;;;;5111754;28;20084;-66
2022/02/05 08:01:46;;;;;;;14.18;3.22;;;5.30;84.80;;;;;;5129266;28;20042;-66
2022/02/05 08:04:12;;;;;;;16.20;2.95;;;5.30;84.80;;;;;;5129104;28;20196;-66
2022/02/05 08:06:38;;;;;;;14.25;3.13;;;5.30;84.80;;;;;;5129444;28;20115;-66
2022/02/05 08:09:14;;;;;;;11.77;3.15;;;5.30;84.70;;;;;;5129487;28;20020;-66
2022/02/05 08:11:45;;;;;;;14.38;2.97;;;5.30;84.70;;;;;;5127425;28;20031;-66
2022/02/05 08:14:11;;;;;;;12.90;2.92;;;5.30;84.70;;;;;;5129696;28;20023;-66
2022/02/05 08:19:07;;;;;;;14.82;2.90;;;5.40;84.70;;;;;;5122556;28;20096;-66
2022/02/05 08:21:33;;;;;;;12.60;2.92;;;5.40;84.60;;;;;;5122698;28;20023;-66
2022/02/05 08:23:59;;;;;;;11.57;3.05;;;5.40;84.60;;;;;;5126338;28;20391;-65
2022/02/05 08:26:28;;;;;;;14.02;2.53;;;5.40;84.60;;;;;;5124215;28;20031;-64
2022/02/05 08:28:55;;;;;;;10.02;2.78;;;5.40;84.60;;;;;;5128900;28;20494;-64
2022/02/05 08:31:21;;;;;;;12.52;2.95;;;5.40;84.50;;;;;;5129090;28;20478;-65
2022/02/05 08:33:47;;;;;;;16.08;3.67;;;5.40;84.40;;;;;;5128463;28;20028;-66
2022/02/05 08:36:13;;;;;;;12.90;3.00;;;5.40;84.30;;;;;;5128227;27;20019;-65
2022/02/05 08:38:39;;;;;;;13.18;3.20;;;5.40;84.30;;;;;;5128166;28;20114;-66
2022/02/05 08:41:04;;;;;;;14.55;3.20;;;5.40;84.80;;;;;;5110175;28;20020;-67
2022/02/05 08:43:30;;;;;;;8.43;2.55;;;5.40;84.20;;;;;;5127333;28;20130;-66
2022/02/05 08:46:00;;;;;;;13.20;2.83;;;5.50;84.30;;;;;;5082492;28;20118;-65
2022/02/05 08:48:26;;;;;;;10.73;2.72;;;5.50;84.30;;;;;;5130471;27;20027;-65
2022/02/05 08:50:52;;;;;;;12.60;3.28;;;5.60;84.30;;;;;;5124445;27;20042;-67
2022/02/05 08:53:21;;;;;;;10.52;3.50;;;5.60;84.00;;;;;;5125876;27;20407;-66
2022/02/05 08:55:52;;;;;;;10.35;3.22;;;5.70;83.80;;;;;;5132269;27;20418;-66
2022/02/05 08:58:18;;;;;;;14.07;3.38;;;5.70;83.70;;;;;;5114188;27;20035;-65
2022/02/05 09:00:48;;;;;;;14.80;3.90;;;5.80;83.70;;;;;;5131966;27;20031;-67
2022/02/05 09:05:49;;;;;;;12.13;4.00;;;5.80;83.20;;;;;;5132742;27;20070;-65
2022/02/05 09:08:35;;;;;;;14.95;3.65;;;5.70;83.30;;;;;;5114270;27;20433;-65
2022/02/05 09:11:15;;;;;;;11.98;3.83;;;5.70;83.20;;;;;;5122901;27;20529;-65
2022/02/05 09:16:13;;;;;;;13.50;3.78;;;5.80;83.50;;;;;;5110372;27;20108;-65
2022/02/05 09:18:40;;;;;;;20.15;4.70;;;5.90;83.50;;;;;;5129134;27;20403;-66
2022/02/05 09:21:07;;;;;;;12.13;3.65;;;6.00;83.20;;;;;;5131039;27;20021;-65
2022/02/05 09:23:38;;;;;;;10.40;3.38;;;6.00;83.10;;;;;;5130448;27;20038;-65
2022/02/05 09:26:04;;;;;;;16.92;3.40;;;6.00;83.10;;;;;;5112681;27;20080;-65
2022/02/05 09:28:29;;;;;;;12.45;3.45;;;6.00;83.00;;;;;;5129696;27;20023;-65
2022/02/05 09:31:24;;;;;;;12.63;3.38;;;6.00;83.00;;;;;;5121834;27;20516;-65
2022/02/05 09:33:47;;;;;;;16.48;3.58;;;6.10;83.10;;;;;;5129643;27;20047;-65
2022/02/05 09:36:14;;;;;;;15.25;3.50;;;6.10;83.00;;;;;;5120698;27;20031;-66
2022/02/05 09:38:40;;;;;;;12.77;3.47;;;6.20;83.00;;;;;;5131428;27;20031;-65
2022/02/05 09:41:06;;;;;;;11.20;3.03;;;6.20;83.10;;;;;;5126600;27;20032;-66
2022/02/05 09:43:32;;;;;;;12.20;3.50;;;6.30;83.10;;;;;;5120157;27;20122;-65
2022/02/05 09:45:57;;;;;;;13.18;3.47;;;6.30;82.80;;;;;;5130193;27;20483;-66
2022/02/05 09:48:27;;;;;;;13.90;3.00;;;6.30;82.60;;;;;;5112234;27;20053;-66
2022/02/05 09:50:53;;;;;;;9.40;2.60;;;6.30;82.10;;;;;;5131372;27;20027;-65
2022/02/05 09:53:20;;;;;;;11.90;2.97;;;6.30;81.90;;;;;;5127604;27;20030;-65
2022/02/05 09:55:50;;;;;;;9.07;2.70;;;6.40;82.00;;;;;;5129386;27;20027;-65
2022/02/05 09:58:17;;;;;;;12.95;2.90;;;6.40;82.10;;;;;;5108264;27;20121;-65
2022/02/05 10:01:03;;;;;;;14.73;3.50;;;6.50;81.50;;;;;;5133429;27;20046;-65
2022/02/05 10:03:33;;;;;;;18.60;2.95;;;6.60;81.30;;;;;;5125488;27;20376;-66
2022/02/05 10:06:13;;;;;;;11.48;2.60;;;6.60;81.20;;;;;;5126990;27;20050;-66
2022/02/05 10:08:46;;;;;;;12.73;3.72;;;6.70;80.90;;;;;;5106669;27;20786;-65
2022/02/05 10:11:12;;;;;;;14.02;2.85;;;6.80;80.70;;;;;;5131207;27;20046;-65
2022/02/05 10:13:40;;;;;;;14.25;3.30;;;6.80;81.20;;;;;;5130205;27;20019;-65
2022/02/05 10:16:07;;;;;;;15.73;2.60;;;7.00;80.00;;;;;;5139838;27;20502;-66
2022/02/05 10:18:38;;;;;;;15.32;3.28;;;7.10;79.60;;;;;;5132952;27;20015;-68
2022/02/05 10:21:22;;;;;;;13.75;3.35;;;7.10;79.30;;;;;;5130655;27;20449;-68
2022/02/05 10:23:57;;;;;;;10.95;2.60;;;7.30;79.30;;;;;;5109033;28;20051;-67
2022/02/05 10:26:37;;;;;;;9.43;2.95;;;7.40;78.80;;;;;;5090291;28;20016;-67
2022/02/05 10:29:09;;;;;;;16.33;2.50;;;7.50;78.20;;;;;;5102733;28;20027;-65
2022/02/05 10:31:53;;;;;;;;;;;7.60;77.70;;;;;;5106569;28;20032;-64
2022/02/05 10:34:19;;;;;;;10.52;2.45;;;7.70;77.20;;;;;;5105893;28;19912;-65
2022/02/05 10:36:46;;;;;;;12.38;2.65;;;7.70;76.90;;;;;;5095902;28;20031;-66
2022/02/05 10:44:35;;;;;;;9.73;2.20;;;7.80;75.60;;;;;;5094991;28;20392;-68
2022/02/05 10:47:00;;;;;;;8.88;2.05;;;7.90;76.00;;;;;;5101463;28;20024;-67
2022/02/05 10:49:48;;;;;;;9.80;2.30;;;7.90;75.40;;;;;;5112256;27;20463;-66
2022/02/05 10:52:31;;;;;;;15.13;2.55;;;7.90;75.40;;;;;;5109439;27;20510;-67
2022/02/05 10:55:10;;;;;;;10.30;2.00;;;7.90;74.20;;;;;;5110602;27;20027;-66
2022/02/05 10:57:52;;;;;;;7.00;2.25;;;7.70;74.30;;;;;;5101370;27;20097;-66
2022/02/05 11:08:01;;;;;;;13.48;3.22;;;7.60;74.00;;;;;;5109111;28;20231;-67
2022/02/05 11:13:16;;;;;;;14.63;3.33;;;7.50;74.10;;;;;;5109679;28;20560;-67
2022/02/05 11:20:58;;;;;;;8.07;1.90;;;7.30;73.90;;;;;;5088904;28;20024;-66
2022/02/05 11:23:27;;;;;;;10.68;2.97;;;7.30;74.40;;;;;;5095296;28;20092;-66
2022/02/05 11:25:54;;;;;;;8.25;2.60;;;7.30;74.90;;;;;;5109566;28;20034;-66
2022/02/05 11:28:46;;;;;;;7.53;2.03;;;7.30;74.80;;;;;;5109713;28;20073;-67
2022/02/05 11:31:32;;;;;;;13.75;2.33;;;7.40;74.80;;;;;;5109847;28;20027;-67
2022/02/05 11:34:27;;;;;;;12.35;2.63;;;7.40;74.40;;;;;;5112684;27;20023;-67
2022/02/05 11:37:07;;;;;;;12.95;2.53;;;7.40;74.80;;;;;;5108823;28;20047;-67
2022/02/05 11:39:53;;;;;;;9.98;2.10;;;7.40;75.00;;;;;;5126067;28;20050;-67
2022/02/05 11:42:25;;;;;;;11.73;2.22;;;7.40;74.90;;;;;;5118926;28;20031;-67
2022/02/05 11:44:51;;;;;;;11.18;3.08;;;7.40;74.90;;;;;;5128554;28;20100;-67
2022/02/05 11:47:17;;;;;;;12.05;2.15;;;7.50;74.50;;;;;;5128499;28;20039;-67
2022/02/05 11:49:57;;;;;;;11.48;2.60;;;7.50;74.40;;;;;;5129115;28;20084;-67
2022/02/05 11:52:35;;;;;;;10.32;2.42;;;7.40;73.80;;;;;;5107934;28;20022;-67
2022/02/05 11:55:09;;;;;;;7.47;2.03;;;7.40;73.80;;;;;;5128465;28;20030;-67
2022/02/05 11:57:47;;;;;;;9.10;1.92;;;7.40;74.20;;;;;;5129319;28;20412;-67
2022/02/05 12:00:20;;;;;;;11.82;2.60;;;7.50;74.30;;;;;;5120449;28;20036;-67
2022/02/05 12:02:57;;;;;;;13.20;2.70;;;7.50;73.50;;;;;;5125869;28;20050;-67
2022/02/05 12:05:31;;;;;;;8.88;1.83;;;7.50;73.00;;;;;;5128726;28;20035;-67
2022/02/05 12:08:03;;;;;;;8.15;2.03;;;7.50;73.10;;;;;;5129338;28;20605;-66
2022/02/05 12:10:45;;;;;;;8.70;2.55;;;7.50;73.20;;;;;;5130159;28;20099;-67
2022/02/05 12:13:22;;;;;;;9.40;2.25;;;7.60;73.20;;;;;;5111445;28;20035;-66
2022/02/05 12:15:54;;;;;;;12.40;2.28;;;7.60;73.30;;;;;;5129700;27;20096;-66
2022/02/05 12:18:24;;;;;;;16.25;4.35;;;7.60;73.40;;;;;;5111093;28;20058;-66
2022/02/05 12:21:00;;;;;;;11.85;2.10;;;7.70;73.20;;;;;;5130660;27;20114;-66
2022/02/05 12:26:25;;;;;;;9.60;2.10;;;8.80;70.50;;;;;;5081046;28;20040;-67
2022/02/05 12:28:55;;;;;;;9.30;2.28;;;9.50;67.50;;;;;;5071364;28;20032;-67
2022/02/05 12:31:30;;;;;;;5.18;1.83;;;9.40;66.80;;;;;;5072323;28;20020;-67
2022/02/05 12:33:59;;;;;;;10.63;2.30;;;9.50;67.30;;;;;;5072005;28;20020;-67
2022/02/05 12:36:38;;;;;;;9.55;2.30;;;9.40;66.70;;;;;;5071817;28;20025;-67
2022/02/05 12:39:11;;;;;;;8.98;2.17;;;9.40;67.00;;;;;;5072167;28;20062;-67
2022/02/05 12:41:43;;;;;;;10.23;1.90;;;9.60;66.80;;;;;;5076187;28;20139;-67
2022/02/05 12:44:09;;;;;;;8.80;1.92;;;9.40;66.80;;;;;;5091831;28;20115;-67
2022/02/05 12:46:51;;;;;;;10.48;2.55;;;9.30;67.20;;;;;;5091991;28;20111;-67
2022/02/05 12:49:23;;;;;;;12.50;2.30;;;10.00;64.80;;;;;;5091831;28;20027;-67
2022/02/05 12:51:50;;;;;;;11.73;2.53;;;10.20;64.00;;;;;;5084847;28;20044;-67
2022/02/05 12:54:20;;;;;;;10.65;2.20;;;10.60;62.40;;;;;;5070077;28;20410;-67
2022/02/05 12:56:47;;;;;;;11.80;2.10;;;11.00;61.60;;;;;;5105625;28;20064;-67
2022/02/05 12:59:16;;;;;;;9.35;2.20;;;12.00;61.00;;;;;;5097427;28;20036;-67
2022/02/05 13:02:10;;;;;;;7.90;1.98;;;12.70;57.90;;;;;;5071933;28;20032;-67
2022/02/05 13:04:41;;;;;;;15.13;2.50;;;12.20;56.10;;;;;;5069766;28;20044;-67
2022/02/05 13:07:15;;;;;;;8.80;1.80;;;12.20;55.60;;;;;;5071980;28;20048;-67
2022/02/05 13:10:05;;;;;;;6.25;2.03;;;12.20;56.00;;;;;;5071472;28;20116;-67
2022/02/05 13:12:34;;;;;;;9.80;2.35;;;11.80;56.80;;;;;;5070176;28;20065;-66
2022/02/05 13:15:07;;;;;;;11.23;2.45;;;11.50;57.50;;;;;;5070029;28;20071;-67
2022/02/05 13:17:52;;;;;;;9.77;2.38;;;11.30;57.80;;;;;;5071630;28;20024;-67
2022/02/05 13:25:47;;;;;;;11.25;2.50;;;10.50;58.70;;;;;;5111881;27;20046;-67
2022/02/05 13:28:40;;;;;;;8.32;2.00;;;10.20;59.80;;;;;;5125377;27;20023;-67
2022/02/05 13:34:03;;;;;;;9.68;2.22;;;10.80;58.10;;;;;;5121607;27;20399;-66
2022/02/05 13:39:22;;;;;;;11.52;1.95;;;11.70;57.20;;;;;;5131900;27;20070;-67
2022/02/05 13:45:24;;;;;;;12.10;2.35;;;11.90;53.40;;;;;;5100094;27;20368;-65
2022/02/05 13:47:52;;;;;;;8.65;1.88;;;12.10;54.50;;;;;;5085910;28;20037;-65
2022/02/05 13:50:31;;;;;;;10.57;2.45;;;12.40;53.10;;;;;;5070349;28;20025;-65
2022/02/05 13:53:02;;;;;;;7.80;1.73;;;12.10;53.90;;;;;;5054567;28;20028;-65
2022/02/05 13:55:37;;;;;;;6.93;1.73;;;11.80;54.30;;;;;;5078171;28;20027;-66
2022/02/05 14:00:05;;;;;;;7.68;2.08;;;12.30;53.70;;;;;;5074128;28;20394;-68
2022/02/05 14:02:37;;;;;;;9.10;2.22;;;12.40;53.40;;;;;;5079893;28;20479;-68
2022/02/05 14:05:14;;;;;;;12.02;2.25;;;12.30;53.40;;;;;;5071954;28;20033;-68
2022/02/05 14:07:42;;;;;;;9.98;1.90;;;12.10;54.00;;;;;;5070101;28;20499;-69
2022/02/05 14:10:12;;;;;;;8.02;2.28;;;11.90;54.50;;;;;;5045834;28;20041;-68
2022/02/05 14:12:50;;;;;;;7.68;1.88;;;11.50;55.60;;;;;;5057730;28;20039;-69
2022/02/05 14:15:17;;;;;;;8.48;2.13;;;11.10;56.70;;;;;;5078860;28;20130;-68
2022/02/05 14:17:46;;;;;;;9.65;2.30;;;10.70;57.70;;;;;;5082902;28;20388;-68
2022/02/05 14:20:13;;;;;;;6.88;1.70;;;10.50;58.50;;;;;;5067313;28;20021;-68
2022/02/05 14:22:42;;;;;;;13.70;2.75;;;10.40;59.10;;;;;;5066044;28;20028;-68
2022/02/05 14:25:17;;;;;;;11.57;2.83;;;10.40;59.60;;;;;;5064339;28;20391;-68
2022/02/05 14:28:03;;;;;;;12.20;2.72;;;10.30;59.20;;;;;;5064461;28;20035;-68
2022/02/05 14:30:30;;;;;;;11.15;2.22;;;10.10;60.00;;;;;;5066076;28;20078;-68
2022/02/05 14:32:59;;;;;;;6.90;1.95;;;10.00;60.40;;;;;;5065549;28;20508;-68
2022/02/05 14:40:53;;;;;;;6.05;2.00;;;9.60;61.20;;;;;;5057074;28;20075;-68
2022/02/05 14:43:19;;;;;;;12.70;2.65;;;9.50;61.00;;;;;;5064988;28;20056;-68
2022/02/05 14:45:45;;;;;;;9.52;2.30;;;9.40;61.40;;;;;;5064433;28;20024;-68
2022/02/05 14:48:12;;;;;;;10.68;2.40;;;9.40;61.60;;;;;;5065166;28;20511;-68
2022/02/05 14:50:38;;;;;;;10.85;2.15;;;9.40;62.10;;;;;;5065861;28;20132;-68
2022/02/05 14:53:04;;;;;;;11.77;2.55;;;9.40;62.00;;;;;;5066098;28;20029;-68
2022/02/05 14:55:31;;;;;;;6.03;1.73;;;9.40;62.30;;;;;;5077706;28;20056;-67
2022/02/05 14:57:56;;;;;;;6.32;2.40;;;9.40;62.50;;;;;;5060075;28;20076;-67
2022/02/05 15:00:22;;;;;;;8.13;2.40;;;9.30;62.80;;;;;;5053876;28;20515;-68
2022/02/05 15:02:52;;;;;;;7.30;2.30;;;9.30;63.20;;;;;;5057350;28;20024;-68
2022/02/05 15:05:18;;;;;;;9.18;2.58;;;9.20;63.40;;;;;;5064774;28;20032;-67
2022/02/05 15:07:44;;;;;;;5.60;2.30;;;9.20;63.80;;;;;;5075558;28;20460;-68
2022/02/05 15:10:14;;;;;;;9.23;2.70;;;9.20;64.00;;;;;;5059950;28;20529;-68
2022/02/05 15:12:41;;;;;;;8.55;2.50;;;9.10;64.20;;;;;;5052739;28;20104;-68
2022/02/05 15:15:13;;;;;;;9.93;2.53;;;9.10;64.70;;;;;;5049029;28;20132;-67
2022/02/05 15:17:44;;;;;;;8.23;2.33;;;9.10;65.00;;;;;;5048393;28;20109;-67
2022/02/05 15:20:12;;;;;;;11.02;2.38;;;9.10;65.20;;;;;;5052606;28;20484;-67
2022/02/05 15:22:38;;;;;;;10.15;2.35;;;9.10;65.40;;;;;;5048026;28;20025;-68
2022/02/05 15:25:05;;;;;;;15.35;2.40;;;9.10;65.30;;;;;;5050051;28;20044;-68
2022/02/05 15:27:31;;;;;;;9.02;2.45;;;9.10;65.50;;;;;;5050212;28;20055;-67
2022/02/05 15:29:57;;;;;;;8.02;2.15;;;9.10;65.90;;;;;;5051331;28;20033;-67
2022/02/05 15:32:22;;;;;;;6.88;2.22;;;9.10;66.20;;;;;;5050561;28;20480;-67
2022/02/05 15:34:48;;;;;;;8.90;2.20;;;9.10;66.50;;;;;;5047176;28;20184;-67
2022/02/05 15:37:21;;;;;;;11.73;2.40;;;9.10;66.60;;;;;;5050074;28;20025;-67
2022/02/05 15:45:28;;;;;;;10.38;2.25;;;9.20;66.90;;;;;;5036191;28;20041;-68
2022/02/05 15:47:54;;;;;;;7.63;2.60;;;9.10;66.90;;;;;;5048690;28;20459;-68
2022/02/05 15:50:20;;;;;;;11.82;2.22;;;9.10;67.00;;;;;;5053184;28;20024;-68
2022/02/05 15:52:45;;;;;;;9.93;2.20;;;9.10;67.20;;;;;;5051430;28;20033;-68
2022/02/05 15:55:12;;;;;;;10.18;2.10;;;9.10;67.40;;;;;;5047562;28;20056;-68
2022/02/05 16:00:23;;;;;;;11.13;2.67;;;9.00;67.90;;;;;;5048795;28;20057;-68
2022/02/05 16:02:48;;;;;;;6.65;2.03;;;9.00;67.90;;;;;;5050583;28;20411;-68
2022/02/05 16:05:14;;;;;;;12.00;2.45;;;8.90;68.10;;;;;;5051363;28;20032;-68
2022/02/05 16:07:40;;;;;;;10.45;2.90;;;8.90;68.30;;;;;;5050852;28;20472;-68
2022/02/05 16:10:06;;;;;;;9.95;2.72;;;8.90;68.30;;;;;;5052252;28;20068;-68